Archiv-/Tagesdaten

--Timestamp---	Temp	Chill	HIndex	Humid	Dewpt	 Wind 	HiWind	WindDir	Rain 	Barom	Solar	 ET  	 UV 
--------------	----	-----	------	-----	-----	------	------	-------	-----	-----	-----	-----	----
20101128 00:00	-4.1	-4.1	-4.1	86	-6.0	2	6	135	0.0	1005.7	0	0.000	0.0
20101128 00:05	-4.1	-4.1	-4.1	86	-6.0	0	5	135	0.0	1005.6	0	0.000	0.0
20101128 00:10	-4.1	-4.1	-4.1	86	-6.1	0	3	135	0.0	1005.7	0	0.000	0.0
20101128 00:15	-4.1	-4.1	-4.1	86	-6.1	2	5	135	0.0	1005.7	0	0.000	0.0
20101128 00:20	-4.1	-4.1	-4.1	86	-6.1	0	2	135	0.0	1005.8	0	0.000	0.0
20101128 00:25	-4.2	-4.2	-4.2	86	-6.2	0	0	-100000	0.0	1005.8	0	0.000	0.0
20101128 00:30	-4.3	-4.3	-4.3	86	-6.3	0	0	-100000	0.0	1005.8	0	0.000	0.0
20101128 00:35	-4.3	-4.3	-4.3	86	-6.3	0	0	-100000	0.0	1005.9	0	0.000	0.0
20101128 00:40	-4.4	-4.4	-4.4	86	-6.4	0	3	135	0.0	1006.0	0	0.000	0.0
20101128 00:45	-4.4	-4.4	-4.4	86	-6.4	0	0	-100000	0.0	1006.0	0	0.000	0.0
20101128 00:50	-4.5	-4.5	-4.5	86	-6.5	0	0	-100000	0.0	1006.1	0	0.000	0.0
20101128 00:55	-4.6	-4.6	-4.6	86	-6.5	0	2	135	0.0	1006.1	0	0.000	0.0
20101128 01:00	-4.8	-4.8	-4.8	85	-7.0	2	3	135	0.0	1006.2	0	0.000	0.0
20101128 01:05	-5.1	-5.1	-5.1	86	-7.0	0	3	135	0.0	1006.3	0	0.000	0.0
20101128 01:10	-5.3	-5.3	-5.3	86	-7.2	0	3	135	0.0	1006.4	0	0.000	0.0
20101128 01:15	-5.4	-5.4	-5.4	86	-7.4	2	5	135	0.0	1006.4	0	0.000	0.0
20101128 01:20	-5.4	-5.4	-5.4	87	-7.3	2	3	135	0.0	1006.6	0	0.000	0.0
20101128 01:25	-5.4	-5.4	-5.4	87	-7.3	0	5	135	0.0	1006.7	0	0.000	0.0
20101128 01:30	-5.4	-5.4	-5.4	87	-7.3	0	3	135	0.0	1006.6	0	0.000	0.0
20101128 01:35	-5.4	-5.4	-5.4	88	-7.1	0	3	135	0.0	1006.8	0	0.000	0.0
20101128 01:40	-5.4	-5.4	-5.4	88	-7.1	0	2	135	0.0	1006.8	0	0.000	0.0
20101128 01:45	-5.3	-5.3	-5.3	88	-7.0	0	0	-100000	0.0	1006.8	0	0.000	0.0
20101128 01:50	-5.3	-5.3	-5.3	88	-7.0	0	3	135	0.0	1006.9	0	0.000	0.0
20101128 01:55	-5.3	-5.3	-5.3	88	-7.0	0	0	-100000	0.0	1007.0	0	0.000	0.0
20101128 02:00	-5.3	-5.3	-5.3	89	-6.8	0	0	-100000	0.0	1007.0	0	0.000	0.0
20101128 02:05	-5.3	-5.3	-5.3	88	-6.9	0	0	-100000	0.0	1007.1	0	0.000	0.0
20101128 02:10	-5.3	-5.3	-5.3	88	-6.9	0	0	-100000	0.0	1007.1	0	0.000	0.0
20101128 02:15	-5.3	-5.3	-5.3	88	-6.9	0	0	-100000	0.0	1007.0	0	0.000	0.0
20101128 02:20	-5.3	-5.3	-5.3	88	-7.0	0	3	135	0.0	1006.9	0	0.000	0.0
20101128 02:25	-5.4	-5.4	-5.4	88	-7.1	0	3	135	0.0	1006.9	0	0.000	0.0
20101128 02:30	-5.6	-5.6	-5.6	88	-7.2	2	3	135	0.0	1006.9	0	0.000	0.0
20101128 02:35	-5.6	-5.6	-5.6	88	-7.3	0	0	-100000	0.0	1006.9	0	0.000	0.0
20101128 02:40	-5.6	-5.6	-5.6	88	-7.2	0	0	-100000	0.0	1007.1	0	0.000	0.0
20101128 02:45	-5.5	-5.5	-5.5	89	-7.0	0	0	-100000	0.0	1007.1	0	0.000	0.0
20101128 02:50	-5.4	-5.4	-5.4	89	-6.9	0	3	135	0.0	1007.1	0	0.000	0.0
20101128 02:55	-5.3	-5.3	-5.3	89	-6.8	0	0	-100000	0.0	1007.1	0	0.000	0.0
20101128 03:00	-5.2	-5.2	-5.2	89	-6.7	0	0	-100000	0.0	1006.9	0	0.000	0.0
20101128 03:05	-5.2	-5.2	-5.2	89	-6.7	0	0	-100000	0.0	1007.1	0	0.000	0.0
20101128 03:10	-5.2	-5.2	-5.2	89	-6.7	0	3	135	0.0	1007.1	0	0.000	0.0
20101128 03:15	-5.2	-5.2	-5.2	89	-6.7	0	5	135	0.0	1007.0	0	0.000	0.0
20101128 03:20	-5.2	-5.2	-5.2	89	-6.7	2	6	135	0.0	1007.1	0	0.000	0.0
20101128 03:25	-5.2	-5.2	-5.2	89	-6.7	3	6	135	0.0	1007.0	0	0.000	0.0
20101128 03:30	-5.2	-5.2	-5.2	88	-6.9	3	11	135	0.0	1007.0	0	0.000	0.0
20101128 03:35	-5.2	-5.2	-5.2	89	-6.7	3	8	135	0.0	1007.1	0	0.000	0.0
20101128 03:40	-5.2	-5.2	-5.2	89	-6.7	2	6	135	0.0	1007.1	0	0.000	0.0
20101128 03:45	-5.2	-5.2	-5.2	89	-6.7	2	5	135	0.0	1007.2	0	0.000	0.0
20101128 03:50	-5.2	-5.2	-5.2	89	-6.7	0	2	135	0.0	1007.2	0	0.000	0.0
20101128 03:55	-5.2	-5.2	-5.2	89	-6.7	0	0	-100000	0.0	1007.2	0	0.000	0.0
20101128 04:00	-5.2	-5.2	-5.2	89	-6.7	0	3	135	0.0	1007.3	0	0.000	0.0
20101128 04:05	-5.2	-5.2	-5.2	89	-6.7	0	2	135	0.0	1007.4	0	0.000	0.0
20101128 04:10	-5.2	-5.2	-5.2	89	-6.7	0	0	-100000	0.0	1007.5	0	0.000	0.0
20101128 04:15	-5.2	-5.2	-5.2	89	-6.7	0	0	-100000	0.0	1007.5	0	0.000	0.0
20101128 04:20	-5.3	-5.3	-5.3	88	-6.9	0	2	135	0.0	1007.4	0	0.000	0.0
20101128 04:25	-5.3	-5.3	-5.3	88	-6.9	0	0	-100000	0.0	1007.4	0	0.000	0.0
20101128 04:30	-5.3	-5.3	-5.3	89	-6.8	0	0	-100000	0.0	1007.4	0	0.000	0.0
20101128 04:35	-5.3	-5.3	-5.3	88	-6.9	0	0	-100000	0.0	1007.3	0	0.000	0.0
20101128 04:40	-5.3	-5.3	-5.3	88	-6.9	0	0	-100000	0.0	1007.2	0	0.000	0.0
20101128 04:45	-5.3	-5.3	-5.3	88	-7.0	0	0	-100000	0.0	1007.1	0	0.000	0.0
20101128 04:50	-5.4	-5.4	-5.4	88	-7.1	0	0	-100000	0.0	1007.2	0	0.000	0.0
20101128 04:55	-5.4	-5.4	-5.4	88	-7.1	0	0	-100000	0.0	1007.1	0	0.000	0.0
20101128 05:00	-5.4	-5.4	-5.4	88	-7.1	0	0	-100000	0.0	1007.1	0	0.000	0.0
20101128 05:05	-5.4	-5.4	-5.4	88	-7.1	0	0	-100000	0.0	1007.3	0	0.000	0.0
20101128 05:10	-5.4	-5.4	-5.4	89	-6.9	0	0	-100000	0.0	1007.1	0	0.000	0.0
20101128 05:15	-5.4	-5.4	-5.4	88	-7.1	0	0	-100000	0.0	1007.0	0	0.000	0.0
20101128 05:20	-5.4	-5.4	-5.4	88	-7.1	0	0	-100000	0.0	1007.0	0	0.000	0.0
20101128 05:25	-5.6	-5.6	-5.6	88	-7.2	3	8	135	0.0	1007.2	0	0.000	0.0
20101128 05:30	-5.6	-5.6	-5.6	88	-7.3	3	8	135	0.0	1007.4	0	0.000	0.0
20101128 05:35	-5.6	-5.6	-5.6	89	-7.1	5	10	158	0.0	1007.3	0	0.000	0.0
20101128 05:40	-5.6	-5.6	-5.6	89	-7.1	3	6	158	0.0	1007.2	0	0.000	0.0
20101128 05:45	-5.6	-5.6	-5.6	89	-7.1	3	6	158	0.0	1007.0	0	0.000	0.0
20101128 05:50	-5.6	-5.6	-5.6	89	-7.1	0	5	158	0.0	1007.1	0	0.000	0.0
20101128 05:55	-5.5	-5.5	-5.5	89	-7.0	2	5	158	0.0	1007.0	0	0.000	0.0
20101128 06:00	-5.4	-5.4	-5.4	89	-7.0	2	6	158	0.0	1006.9	0	0.000	0.0
20101128 06:05	-5.4	-5.4	-5.4	89	-7.0	2	5	158	0.0	1006.9	0	0.000	0.0
20101128 06:10	-5.3	-5.3	-5.3	89	-6.9	2	5	158	0.0	1006.9	0	0.000	0.0
20101128 06:15	-5.3	-5.3	-5.3	88	-6.9	3	5	158	0.0	1006.8	0	0.000	0.0
20101128 06:20	-5.2	-5.2	-5.2	88	-6.9	3	6	158	0.0	1006.8	0	0.000	0.0
20101128 06:25	-5.2	-5.2	-5.2	88	-6.8	2	6	158	0.0	1006.8	0	0.000	0.0
20101128 06:30	-5.1	-5.1	-5.1	88	-6.8	3	8	158	0.0	1006.8	0	0.000	0.0
20101128 06:35	-5.1	-5.1	-5.1	88	-6.8	3	6	158	0.0	1006.8	0	0.000	0.0
20101128 06:40	-5.1	-5.1	-5.1	88	-6.7	2	5	158	0.0	1006.8	0	0.000	0.0
20101128 06:45	-5.0	-5.0	-5.0	88	-6.7	0	5	158	0.0	1006.8	0	0.000	0.0
20101128 06:50	-4.9	-4.9	-4.9	88	-6.6	0	5	158	0.0	1006.8	0	0.000	0.0
20101128 06:55	-4.8	-4.8	-4.8	88	-6.5	0	5	158	0.0	1006.8	0	0.000	0.0
20101128 07:00	-4.8	-4.8	-4.8	87	-6.7	0	3	158	0.0	1006.8	0	0.000	0.0
20101128 07:05	-4.8	-4.8	-4.8	87	-6.6	0	5	158	0.0	1006.9	0	0.000	0.0
20101128 07:10	-4.7	-4.7	-4.7	87	-6.5	2	6	158	0.0	1006.7	0	0.000	0.0
20101128 07:15	-4.8	-4.8	-4.8	87	-6.6	5	6	158	0.0	1006.6	0	0.000	0.0
20101128 07:20	-4.8	-4.8	-4.8	87	-6.6	2	5	158	0.0	1006.5	0	0.000	0.0
20101128 07:25	-4.8	-4.8	-4.8	87	-6.7	3	5	158	0.0	1006.5	0	0.000	0.0
20101128 07:30	-4.8	-4.8	-4.8	87	-6.7	3	6	158	0.0	1006.4	0	0.000	0.0
20101128 07:35	-4.9	-4.9	-4.9	87	-6.7	3	6	158	0.0	1006.5	0	0.000	0.0
20101128 07:40	-4.8	-4.8	-4.8	87	-6.7	3	8	158	0.0	1006.6	0	0.000	0.0
20101128 07:45	-4.8	-4.8	-4.8	87	-6.7	5	10	135	0.0	1006.6	0	0.000	0.0
20101128 07:50	-4.8	-4.8	-4.8	87	-6.6	5	10	135	0.0	1006.5	1	0.000	0.0
20101128 07:55	-4.7	-4.7	-4.7	87	-6.5	5	10	135	0.0	1006.6	5	0.000	0.0
20101128 08:00	-4.7	-4.7	-4.7	87	-6.5	5	10	135	0.0	1006.6	8	0.000	0.0
20101128 08:05	-4.6	-4.6	-4.6	87	-6.4	2	6	135	0.0	1006.8	8	0.000	0.0
20101128 08:10	-4.6	-4.6	-4.6	87	-6.4	2	6	135	0.0	1006.6	12	0.000	0.0
20101128 08:15	-4.6	-4.6	-4.6	87	-6.4	5	11	135	0.0	1006.6	14	0.000	0.0
20101128 08:20	-4.6	-4.6	-4.6	87	-6.4	5	11	135	0.0	1006.5	16	0.000	0.0
20101128 08:25	-4.6	-7.4	-4.6	87	-6.4	6	11	135	0.0	1006.5	17	0.000	0.0
20101128 08:30	-4.5	-4.5	-4.5	87	-6.3	5	11	135	0.0	1006.5	18	0.000	0.0
20101128 08:35	-4.5	-4.5	-4.5	87	-6.3	5	10	135	0.0	1006.6	19	0.000	0.0
20101128 08:40	-4.4	-4.4	-4.4	86	-6.4	5	11	112	0.0	1006.6	19	0.000	0.0
20101128 08:45	-4.4	-7.2	-4.4	86	-6.4	6	11	135	0.0	1006.5	21	0.000	0.0
20101128 08:50	-4.3	-7.2	-4.3	86	-6.3	6	10	135	0.0	1006.5	28	0.000	0.0
20101128 08:55	-4.3	-7.2	-4.3	86	-6.3	6	10	135	0.0	1006.3	33	0.000	0.0
20101128 09:00	-4.3	-7.1	-4.3	86	-6.3	6	10	135	0.0	1006.3	32	0.000	0.0
20101128 09:05	-4.2	-7.1	-4.2	86	-6.2	6	10	135	0.0	1006.4	32	0.000	0.0
20101128 09:10	-4.1	-4.1	-4.1	86	-6.1	5	10	135	0.0	1006.3	37	0.000	0.0
20101128 09:15	-4.1	-4.1	-4.1	86	-6.0	5	8	135	0.0	1006.2	53	0.000	0.0
20101128 09:20	-4.0	-4.0	-4.0	86	-6.0	3	8	135	0.0	1006.2	65	0.000	0.0
20101128 09:25	-3.9	-3.9	-3.9	86	-5.9	5	8	135	0.0	1006.1	72	0.000	0.0
20101128 09:30	-3.8	-3.8	-3.8	85	-6.0	3	8	135	0.0	1006.2	78	0.000	0.0
20101128 09:35	-3.7	-3.7	-3.7	86	-5.7	2	5	135	0.0	1006.2	81	0.000	0.0
20101128 09:40	-3.6	-3.6	-3.6	85	-5.7	2	3	135	0.0	1006.2	86	0.000	0.0
20101128 09:45	-3.4	-3.4	-3.4	85	-5.6	0	2	135	0.0	1006.1	86	0.000	0.0
20101128 09:50	-3.4	-3.4	-3.4	85	-5.5	0	3	135	0.0	1006.2	78	0.000	0.0
20101128 09:55	-3.3	-3.3	-3.3	85	-5.5	0	3	135	0.0	1006.2	74	0.000	0.0
20101128 10:00	-3.2	-3.2	-3.2	85	-5.4	0	3	135	0.0	1006.1	83	0.025	0.0
20101128 10:05	-3.2	-3.2	-3.2	85	-5.3	3	6	135	0.0	1006.1	95	0.000	0.0
20101128 10:10	-3.2	-3.2	-3.2	84	-5.5	3	8	135	0.0	1006.3	90	0.000	0.0
20101128 10:15	-3.2	-3.2	-3.2	85	-5.4	2	5	135	0.0	1006.3	112	0.000	0.0
20101128 10:20	-3.2	-3.2	-3.2	85	-5.3	2	5	135	0.0	1006.4	122	0.000	0.3
20101128 10:25	-3.0	-3.0	-3.0	85	-5.2	2	5	135	0.0	1006.2	132	0.000	0.5
20101128 10:30	-2.8	-2.8	-2.8	85	-5.0	2	5	135	0.0	1006.0	145	0.000	0.6
20101128 10:35	-2.7	-2.7	-2.7	84	-5.0	0	3	135	0.0	1006.0	149	0.000	0.6
20101128 10:40	-2.7	-2.7	-2.7	84	-5.0	2	5	135	0.0	1006.0	134	0.000	0.6
20101128 10:45	-2.6	-2.6	-2.6	83	-5.0	3	5	135	0.0	1006.1	119	0.000	0.6
20101128 10:50	-2.5	-2.5	-2.5	83	-5.0	2	5	135	0.0	1006.0	116	0.000	0.6
20101128 10:55	-2.4	-2.4	-2.4	83	-4.9	2	5	135	0.0	1005.9	128	0.000	0.6
20101128 11:00	-2.4	-2.4	-2.4	83	-4.9	3	6	135	0.0	1005.7	123	0.051	0.6
20101128 11:05	-2.4	-2.4	-2.4	83	-4.9	2	5	135	0.0	1005.7	127	0.000	0.6
20101128 11:10	-2.3	-2.3	-2.3	83	-4.8	2	5	135	0.0	1005.6	138	0.000	0.7
20101128 11:15	-2.3	-2.3	-2.3	83	-4.8	2	5	135	0.0	1005.6	140	0.000	0.7
20101128 11:20	-2.3	-2.3	-2.3	83	-4.8	3	6	135	0.0	1005.6	131	0.000	0.6
20101128 11:25	-2.3	-2.3	-2.3	83	-4.8	3	5	135	0.0	1005.6	125	0.000	0.6
20101128 11:30	-2.3	-2.3	-2.3	83	-4.8	3	6	135	0.0	1005.5	142	0.000	0.7
20101128 11:35	-2.3	-2.3	-2.3	84	-4.7	2	5	135	0.0	1005.5	144	0.000	0.7
20101128 11:40	-2.3	-2.3	-2.3	84	-4.7	3	6	135	0.0	1005.4	158	0.000	0.8
20101128 11:45	-2.3	-2.3	-2.3	84	-4.7	3	6	135	0.0	1005.4	170	0.000	0.8
20101128 11:50	-2.3	-2.3	-2.3	84	-4.6	5	8	135	0.0	1005.2	154	0.000	0.8
20101128 11:55	-2.3	-2.3	-2.3	84	-4.6	3	5	135	0.0	1005.2	151	0.000	0.7
20101128 12:00	-2.2	-2.2	-2.2	84	-4.6	3	6	135	0.0	1005.2	147	0.051	0.7
20101128 12:05	-2.2	-2.2	-2.2	84	-4.5	2	6	135	0.0	1005.1	135	0.000	0.7
20101128 12:10	-2.2	-2.2	-2.2	84	-4.6	5	6	135	0.0	1005.1	118	0.000	0.6
20101128 12:15	-2.2	-2.2	-2.2	84	-4.6	3	5	135	0.0	1005.0	110	0.000	0.5
20101128 12:20	-2.2	-2.2	-2.2	84	-4.6	2	6	135	0.0	1005.0	108	0.000	0.5
20101128 12:25	-2.2	-2.2	-2.2	85	-4.3	2	5	135	0.0	1004.9	106	0.000	0.5
20101128 12:30	-2.2	-2.2	-2.2	84	-4.6	3	6	135	0.0	1004.9	104	0.000	0.5
20101128 12:35	-2.3	-2.3	-2.3	84	-4.6	5	6	135	0.0	1004.8	103	0.000	0.5
20101128 12:40	-2.3	-2.3	-2.3	84	-4.7	5	10	45	0.0	1004.6	111	0.000	0.5
20101128 12:45	-2.3	-2.3	-2.3	85	-4.5	5	8	22	0.0	1004.6	109	0.000	0.5
20101128 12:50	-2.3	-2.3	-2.3	85	-4.5	5	8	22	0.0	1004.6	102	0.000	0.5
20101128 12:55	-2.4	-2.4	-2.4	85	-4.6	5	8	45	0.0	1004.5	97	0.000	0.0
20101128 13:00	-2.4	-2.4	-2.4	85	-4.6	5	8	45	0.0	1004.5	87	0.025	0.0
20101128 13:05	-2.4	-2.4	-2.4	85	-4.6	3	6	68	0.0	1004.4	86	0.000	0.0
20101128 13:10	-2.6	-5.1	-2.6	85	-4.7	6	8	45	0.0	1004.3	84	0.000	0.0
20101128 13:15	-2.6	-2.6	-2.6	85	-4.7	5	8	45	0.0	1004.3	87	0.000	0.0
20101128 13:20	-2.5	-2.5	-2.5	86	-4.5	5	8	45	0.0	1004.1	84	0.000	0.0
20101128 13:25	-2.5	-5.1	-2.5	85	-4.7	6	10	68	0.0	1004.0	76	0.000	0.0
20101128 13:30	-2.5	-2.5	-2.5	85	-4.7	5	8	68	0.0	1003.8	75	0.000	0.0
20101128 13:35	-2.4	-2.4	-2.4	85	-4.6	5	10	68	0.0	1003.8	74	0.000	0.0
20101128 13:40	-2.5	-2.5	-2.5	85	-4.7	5	8	68	0.0	1003.8	71	0.000	0.0
20101128 13:45	-2.5	-2.5	-2.5	85	-4.7	5	8	68	0.0	1003.6	66	0.000	0.0
20101128 13:50	-2.4	-2.4	-2.4	86	-4.5	5	8	68	0.0	1003.6	60	0.000	0.0
20101128 13:55	-2.4	-2.4	-2.4	86	-4.5	5	10	68	0.0	1003.5	53	0.000	0.0
20101128 14:00	-2.4	-2.4	-2.4	86	-4.5	5	8	68	0.0	1003.4	55	0.025	0.0
20101128 14:05	-2.5	-5.1	-2.5	85	-4.7	6	10	45	0.0	1003.4	53	0.000	0.0
20101128 14:10	-2.6	-2.6	-2.6	86	-4.6	5	6	45	0.0	1003.4	48	0.000	0.0
20101128 14:15	-2.6	-5.1	-2.6	85	-4.7	6	10	45	0.0	1003.3	42	0.000	0.0
20101128 14:20	-2.7	-5.3	-2.7	85	-4.9	6	11	45	0.0	1003.3	39	0.000	0.0
20101128 14:25	-2.8	-2.8	-2.8	85	-4.9	5	10	45	0.0	1003.2	39	0.000	0.0
20101128 14:30	-2.8	-2.8	-2.8	86	-4.8	5	10	45	0.0	1003.2	39	0.000	0.0
20101128 14:35	-2.8	-5.5	-2.8	86	-4.8	6	14	45	0.0	1003.2	40	0.000	0.0
20101128 14:40	-2.9	-5.5	-2.9	85	-5.1	6	11	45	0.0	1003.2	37	0.000	0.0
20101128 14:45	-2.9	-6.2	-2.9	85	-5.1	8	11	68	0.0	1003.2	35	0.000	0.0
20101128 14:50	-2.9	-6.7	-2.9	85	-5.1	10	14	68	0.0	1003.2	32	0.000	0.0
20101128 14:55	-2.9	-6.7	-2.9	85	-5.1	10	16	68	0.0	1003.3	28	0.000	0.0
20101128 15:00	-3.1	-6.8	-3.1	85	-5.2	10	16	68	0.0	1003.2	25	0.025	0.0
20101128 15:05	-3.1	-7.3	-3.1	85	-5.2	11	19	68	0.0	1003.2	25	0.000	0.0
20101128 15:10	-3.1	-6.9	-3.1	85	-5.3	10	18	68	0.0	1003.3	23	0.000	0.0
20101128 15:15	-3.1	-5.7	-3.1	85	-5.2	6	10	68	0.0	1003.2	21	0.000	0.0
20101128 15:20	-3.0	-5.6	-3.0	85	-5.2	6	11	68	0.0	1003.2	19	0.000	0.0
20101128 15:25	-3.1	-6.3	-3.1	85	-5.2	8	16	90	0.0	1003.2	19	0.000	0.0
20101128 15:30	-3.1	-6.3	-3.1	85	-5.2	8	18	68	0.0	1003.3	18	0.000	0.0
20101128 15:35	-3.1	-7.4	-3.1	85	-5.3	11	21	68	0.0	1003.5	16	0.000	0.0
20101128 15:40	-3.1	-6.3	-3.1	85	-5.2	8	18	68	0.0	1003.5	14	0.000	0.0
20101128 15:45	-3.1	-6.3	-3.1	85	-5.2	8	11	68	0.0	1003.5	12	0.000	0.0
20101128 15:50	-3.1	-6.8	-3.1	85	-5.2	10	18	68	0.0	1003.3	11	0.000	0.0
20101128 15:55	-3.1	-6.3	-3.1	85	-5.2	8	16	68	0.0	1003.4	8	0.000	0.0
20101128 16:00	-3.1	-6.3	-3.1	85	-5.2	8	18	68	0.0	1003.3	6	0.025	0.0
20101128 16:05	-3.1	-6.8	-3.1	85	-5.2	10	14	68	0.0	1003.4	3	0.000	0.0
20101128 16:10	-3.1	-5.7	-3.1	85	-5.2	6	11	68	0.0	1003.5	0	0.000	0.0
20101128 16:15	-3.0	-5.6	-3.0	86	-5.0	6	11	68	0.0	1003.5	0	0.000	0.0
20101128 16:20	-3.0	-5.6	-3.0	86	-5.0	6	14	68	0.0	1003.4	0	0.000	0.0
20101128 16:25	-3.0	-5.6	-3.0	86	-5.0	6	13	90	0.0	1003.5	0	0.000	0.0
20101128 16:30	-3.0	-5.6	-3.0	85	-5.2	6	11	90	0.0	1003.4	0	0.000	0.0
20101128 16:35	-3.1	-5.7	-3.1	85	-5.2	6	16	68	0.0	1003.5	0	0.000	0.0
20101128 16:40	-3.1	-5.7	-3.1	86	-5.1	6	11	90	0.0	1003.4	0	0.000	0.0
20101128 16:45	-3.1	-3.1	-3.1	86	-5.1	5	10	68	0.0	1003.3	0	0.000	0.0
20101128 16:50	-3.1	-5.7	-3.1	86	-5.1	6	13	68	0.0	1003.3	0	0.000	0.0
20101128 16:55	-3.1	-5.7	-3.1	86	-5.1	6	10	68	0.0	1003.4	0	0.000	0.0
20101128 17:00	-3.1	-3.1	-3.1	86	-5.1	5	10	68	0.0	1003.4	0	0.000	0.0
20101128 17:05	-3.1	-3.1	-3.1	86	-5.1	5	10	68	0.0	1003.4	0	0.000	0.0
20101128 17:10	-3.0	-3.0	-3.0	86	-5.0	5	8	90	0.0	1003.3	0	0.000	0.0
20101128 17:15	-3.0	-3.0	-3.0	86	-5.0	5	10	90	0.0	1003.2	0	0.000	0.0
20101128 17:20	-3.1	-5.7	-3.1	87	-4.9	6	10	68	0.0	1003.2	0	0.000	0.0
20101128 17:25	-3.1	-5.7	-3.1	87	-4.9	6	11	68	0.0	1003.2	0	0.000	0.0
20101128 17:30	-3.1	-5.7	-3.1	87	-4.9	6	16	68	0.0	1003.1	0	0.000	0.0
20101128 17:35	-3.1	-3.1	-3.1	87	-4.9	5	11	90	0.0	1003.0	0	0.000	0.0
20101128 17:40	-3.1	-3.1	-3.1	87	-4.9	3	11	90	0.0	1003.1	0	0.000	0.0
20101128 17:45	-3.1	-5.7	-3.1	87	-4.9	6	11	90	0.0	1003.1	0	0.000	0.0
20101128 17:50	-3.1	-3.1	-3.1	87	-4.9	5	10	90	0.0	1003.1	0	0.000	0.0
20101128 17:55	-3.1	-3.1	-3.1	87	-4.9	5	8	112	0.0	1003.0	0	0.000	0.0
20101128 18:00	-3.0	-3.0	-3.0	87	-4.9	5	10	90	0.0	1002.9	0	0.000	0.0
20101128 18:05	-3.0	-3.0	-3.0	87	-4.9	3	6	90	0.0	1002.7	0	0.000	0.0
20101128 18:10	-3.1	-3.1	-3.1	87	-4.9	3	8	90	0.0	1002.6	635	0.000	0.0
20101128 18:15	-3.1	-3.1	-3.1	88	-4.8	5	10	90	0.0	1002.6	0	0.000	0.0
20101128 18:20	-3.1	-3.1	-3.1	88	-4.8	5	10	90	0.0	1002.6	0	0.000	0.0
20101128 18:25	-3.1	-3.1	-3.1	88	-4.8	5	11	90	0.0	1002.6	0	0.000	0.0
20101128 18:30	-3.1	-3.1	-3.1	88	-4.8	5	11	90	0.0	1002.5	0	0.000	0.0
20101128 18:35	-3.1	-3.1	-3.1	88	-4.8	2	6	90	0.0	1002.4	0	0.000	0.0
20101128 18:40	-3.1	-3.1	-3.1	88	-4.8	3	8	90	0.0	1002.3	0	0.000	0.0
20101128 18:45	-3.0	-3.0	-3.0	88	-4.7	5	10	90	0.0	1002.1	0	0.000	0.0
20101128 18:50	-3.0	-3.0	-3.0	88	-4.7	3	8	68	0.0	1002.1	0	0.000	0.0
20101128 18:55	-3.0	-3.0	-3.0	88	-4.7	2	6	68	0.0	1002.1	0	0.000	0.0
20101128 19:00	-3.0	-3.0	-3.0	88	-4.7	3	6	90	0.0	1002.0	0	0.000	0.0
20101128 19:05	-3.0	-3.0	-3.0	88	-4.7	3	6	112	0.0	1001.9	0	0.000	0.0
20101128 19:10	-2.9	-2.9	-2.9	88	-4.6	3	6	90	0.0	1001.8	0	0.000	0.0
20101128 19:15	-2.9	-2.9	-2.9	88	-4.6	2	6	68	0.0	1001.7	0	0.000	0.0
20101128 19:20	-2.9	-2.9	-2.9	88	-4.6	2	6	68	0.0	1001.6	0	0.000	0.0
20101128 19:25	-2.9	-2.9	-2.9	88	-4.6	3	8	68	0.0	1001.6	0	0.000	0.0
20101128 19:30	-2.9	-2.9	-2.9	88	-4.6	3	6	68	0.0	1001.6	0	0.000	0.0
20101128 19:35	-2.9	-2.9	-2.9	88	-4.6	2	3	68	0.0	1001.6	0	0.000	0.0
20101128 19:40	-2.9	-2.9	-2.9	88	-4.6	2	5	68	0.0	1001.6	0	0.000	0.0
20101128 19:45	-2.9	-2.9	-2.9	88	-4.6	2	5	68	0.0	1001.6	0	0.000	0.0
20101128 19:50	-3.0	-3.0	-3.0	89	-4.6	3	5	90	0.0	1001.6	0	0.000	0.0
20101128 19:55	-3.0	-3.0	-3.0	89	-4.6	3	6	90	0.0	1001.4	0	0.000	0.0
20101128 20:00	-3.0	-3.0	-3.0	89	-4.6	5	8	68	0.0	1001.3	0	0.000	0.0
20101128 20:05	-3.0	-3.0	-3.0	89	-4.6	5	6	68	0.2	1001.3	0	0.000	0.0
20101128 20:10	-3.0	-3.0	-3.0	90	-4.4	3	8	45	0.0	1001.3	0	0.000	0.0
20101128 20:15	-3.0	-3.0	-3.0	90	-4.4	5	8	68	0.0	1001.3	0	0.000	0.0
20101128 20:20	-3.0	-3.0	-3.0	90	-4.4	3	6	68	0.0	1001.3	0	0.000	0.0
20101128 20:25	-3.0	-3.0	-3.0	90	-4.4	5	10	45	0.2	1001.3	0	0.000	0.0
20101128 20:30	-3.0	-3.0	-3.0	90	-4.4	5	6	45	0.0	1001.2	0	0.000	0.0
20101128 20:35	-3.0	-3.0	-3.0	90	-4.4	3	8	45	0.0	1001.1	0	0.000	0.0
20101128 20:40	-3.0	-3.0	-3.0	90	-4.4	5	8	45	0.2	1001.1	0	0.000	0.0
20101128 20:45	-3.0	-3.0	-3.0	90	-4.4	5	8	45	0.0	1001.1	0	0.000	0.0
20101128 20:50	-3.1	-3.1	-3.1	90	-4.5	3	8	45	0.0	1000.9	0	0.000	0.0
20101128 20:55	-3.0	-3.0	-3.0	91	-4.3	2	6	45	0.2	1001.0	0	0.000	0.0
20101128 21:00	-3.0	-3.0	-3.0	91	-4.3	5	6	45	0.0	1000.9	0	0.000	0.0
20101128 21:05	-3.0	-3.0	-3.0	91	-4.3	3	6	45	0.0	1000.6	0	0.000	0.0
20101128 21:10	-3.0	-3.0	-3.0	91	-4.3	5	6	45	0.2	1000.5	0	0.000	0.0
20101128 21:15	-3.0	-3.0	-3.0	91	-4.3	5	8	45	0.0	1000.5	0	0.000	0.0
20101128 21:20	-3.0	-3.0	-3.0	91	-4.3	3	6	45	0.0	1000.4	0	0.000	0.0
20101128 21:25	-2.9	-2.9	-2.9	91	-4.2	3	8	0	0.0	1000.4	0	0.000	0.0
20101128 21:30	-2.9	-2.9	-2.9	91	-4.2	5	8	0	0.2	1000.4	0	0.000	0.0
20101128 21:35	-2.9	-2.9	-2.9	91	-4.1	3	6	0	0.0	1000.3	0	0.000	0.0
20101128 21:40	-2.9	-2.9	-2.9	91	-4.1	5	8	22	0.0	1000.2	0	0.000	0.0
20101128 21:45	-2.9	-2.9	-2.9	91	-4.1	5	10	22	0.0	1000.2	0	0.000	0.0
20101128 21:50	-2.9	-2.9	-2.9	91	-4.2	3	6	22	0.2	1000.2	0	0.000	0.0
20101128 21:55	-2.9	-2.9	-2.9	91	-4.2	5	10	22	0.0	1000.2	0	0.000	0.0
20101128 22:00	-3.1	-3.1	-3.1	91	-4.3	5	6	22	0.0	1000.2	0	0.000	0.0
20101128 22:05	-3.1	-3.1	-3.1	91	-4.3	5	10	22	0.0	1000.1	0	0.000	0.0
20101128 22:10	-3.2	-5.8	-3.2	91	-4.4	6	11	22	0.2	1000.0	0	0.000	0.0
20101128 22:15	-3.2	-5.8	-3.2	91	-4.4	6	10	0	0.0	1000.0	0	0.000	0.0
20101128 22:20	-3.2	-3.2	-3.2	91	-4.4	5	8	22	0.0	999.8	0	0.000	0.0
20101128 22:25	-3.2	-3.2	-3.2	91	-4.5	5	8	22	0.2	999.8	0	0.000	0.0
20101128 22:30	-3.2	-3.2	-3.2	91	-4.5	5	8	22	0.0	999.8	0	0.000	0.0
20101128 22:35	-3.2	-3.2	-3.2	91	-4.5	5	10	22	0.0	999.8	0	0.000	0.0
20101128 22:40	-3.2	-5.9	-3.2	91	-4.5	6	11	22	0.0	999.7	0	0.000	0.0
20101128 22:45	-3.2	-3.2	-3.2	91	-4.5	5	8	22	0.2	999.7	0	0.000	0.0
20101128 22:50	-3.2	-3.2	-3.2	91	-4.5	5	8	22	0.0	999.6	0	0.000	0.0
20101128 22:55	-3.2	-3.2	-3.2	91	-4.5	5	8	22	0.0	999.6	0	0.000	0.0
20101128 23:00	-3.2	-3.2	-3.2	91	-4.5	5	6	22	0.0	999.5	0	0.000	0.0
20101128 23:05	-3.2	-3.2	-3.2	91	-4.5	5	8	22	0.0	999.5	0	0.000	0.0
20101128 23:10	-3.2	-3.2	-3.2	91	-4.5	3	6	22	0.2	999.3	0	0.000	0.0
20101128 23:15	-3.2	-3.2	-3.2	91	-4.5	5	6	22	0.0	999.3	0	0.000	0.0
20101128 23:20	-3.2	-3.2	-3.2	91	-4.5	2	6	22	0.0	999.4	0	0.000	0.0
20101128 23:25	-3.2	-3.2	-3.2	91	-4.5	3	6	22	0.0	999.4	0	0.000	0.0
20101128 23:30	-3.2	-3.2	-3.2	91	-4.5	3	6	22	0.0	999.4	0	0.000	0.0
20101128 23:35	-3.2	-3.2	-3.2	91	-4.5	2	6	22	0.0	999.4	0	0.000	0.0
20101128 23:40	-3.2	-3.2	-3.2	91	-4.4	2	6	22	0.0	999.5	0	0.000	0.0
20101128 23:45	-3.2	-3.2	-3.2	91	-4.5	3	6	22	0.0	999.5	0	0.000	0.0
20101128 23:50	-3.2	-3.2	-3.2	91	-4.4	3	8	22	0.0	999.6	0	0.000	0.0
20101128 23:55	-3.2	-3.2	-3.2	91	-4.5	3	6	22	0.0	999.5	0	0.000	0.0



Please note the license to use and transfer of this data:
http://creativecommons.org/licenses/by-nc-sa/3.0/deed.en

Bitte beachten sie die Lizenz zur Verwertung und Weitergabe der Daten:
http://creativecommons.org/licenses/by-nc-sa/3.0/deed.de

zurück zur Übersicht der Archivdaten (Monats und Tagesdaten)

Cookies helfen bei der Bereitstellung von Inhalten. Durch die Nutzung dieser Seiten erklärst du dich damit einverstanden, dass Cookies auf deinem Rechner gespeichert werden. Weitere Information